createdAt,value
2023-05-22T08:08:48.896Z,94795.94
2023-05-22T08:11:15.985Z,94798.00
2023-05-22T08:13:42.989Z,94804.66
2023-05-22T08:16:16.193Z,94800.00
2023-05-22T08:18:43.212Z,94794.22
2023-05-22T08:21:10.172Z,94797.78
2023-05-22T08:23:38.811Z,94791.41
2023-05-22T08:26:08.955Z,94790.53
2023-05-22T08:28:36.215Z,94786.41
2023-05-22T08:31:03.506Z,94785.94
2023-05-22T08:33:30.517Z,94792.25
2023-05-22T08:35:57.536Z,94797.06
2023-05-22T08:38:24.600Z,94795.66
2023-05-22T08:40:55.720Z,94783.44
2023-05-22T08:43:23.846Z,94795.34
2023-05-22T08:45:56.302Z,94782.72
2023-05-22T08:48:24.096Z,94788.69
2023-05-22T08:50:57.591Z,94791.09
2023-05-22T08:53:26.867Z,94787.00
2023-05-22T08:55:54.316Z,94781.63
2023-05-22T08:58:22.509Z,94778.84
2023-05-22T09:00:49.909Z,94777.25
2023-05-22T09:03:18.682Z,94772.84
2023-05-22T09:05:46.143Z,94775.38
2023-05-22T09:08:20.434Z,94778.84
2023-05-22T09:10:48.497Z,94779.41
2023-05-22T09:13:26.982Z,94783.75
2023-05-22T09:15:58.436Z,94779.19
2023-05-22T09:18:30.008Z,94768.88
2023-05-22T09:21:04.936Z,94763.41
2023-05-22T09:23:34.024Z,94777.69
2023-05-22T09:26:03.131Z,94766.50
2023-05-22T09:28:37.480Z,94776.13
2023-05-22T09:31:04.893Z,94766.16
2023-05-22T09:33:32.695Z,94770.59
2023-05-22T09:36:00.611Z,94777.31
2023-05-22T09:38:29.676Z,94779.94
2023-05-22T09:40:56.960Z,94772.44
2023-05-22T09:43:28.157Z,94777.13
2023-05-22T09:46:01.257Z,94782.84
2023-05-22T09:48:28.377Z,94769.38
2023-05-22T09:50:56.357Z,94774.72
2023-05-22T09:53:30.302Z,94776.69
2023-05-22T09:56:00.261Z,94770.72
2023-05-22T09:58:31.304Z,94774.63
2023-05-22T10:00:59.575Z,94775.78
2023-05-22T10:03:27.635Z,94779.56
2023-05-22T10:05:59.002Z,94782.66
2023-05-22T10:08:28.960Z,94782.97
2023-05-22T10:10:56.246Z,94786.41
2023-05-22T10:13:24.524Z,94787.88
2023-05-22T10:15:51.831Z,94788.78
2023-05-22T10:18:19.077Z,94780.19
2023-05-22T10:20:49.244Z,94788.78
2023-05-22T10:23:17.713Z,94785.22
2023-05-22T10:25:46.187Z,94785.28
2023-05-22T10:28:22.012Z,94785.50
2023-05-22T10:31:14.884Z,94784.00
2023-05-22T10:34:23.166Z,94783.59
2023-05-22T10:37:20.443Z,94787.50
2023-05-22T10:40:13.512Z,94792.38
2023-05-22T10:42:40.808Z,94796.28
2023-05-22T10:45:08.790Z,94804.09
2023-05-22T10:47:36.189Z,94814.91
2023-05-22T10:50:11.817Z,94820.34
2023-05-22T10:52:40.374Z,94822.31
2023-05-22T10:55:09.486Z,94815.56
2023-05-22T10:57:40.429Z,94801.78
2023-05-22T11:00:12.982Z,94806.25
2023-05-22T11:02:43.088Z,94803.69
2023-05-22T11:05:36.693Z,94795.00
2023-05-22T11:08:25.725Z,94791.88
2023-05-22T11:10:52.581Z,94790.56
2023-05-22T11:13:19.664Z,94789.31
2023-05-22T11:15:47.068Z,94786.44
2023-05-22T11:18:17.128Z,94776.00
2023-05-22T11:20:44.698Z,94778.13
2023-05-22T11:23:12.002Z,94778.81
2023-05-22T11:25:41.610Z,94776.16
2023-05-22T11:28:10.907Z,94779.09
2023-05-22T11:30:38.945Z,94775.25
2023-05-22T11:33:06.854Z,94786.25
2023-05-22T11:35:34.625Z,94800.44
2023-05-22T11:38:05.477Z,94833.19
2023-05-22T11:56:42.279Z,94855.66
2023-05-22T11:59:09.290Z,94852.81
2023-05-22T12:01:36.636Z,94854.03
2023-05-22T12:04:05.167Z,94848.19
2023-05-22T12:06:33.731Z,94844.56
2023-05-22T12:09:01.717Z,94851.19
2023-05-22T12:11:28.976Z,94840.53
2023-05-22T12:14:03.051Z,94842.78
2023-05-22T12:16:36.641Z,94840.78
2023-05-22T12:19:11.124Z,94836.19
2023-05-22T12:21:39.551Z,94826.53
2023-05-22T12:24:06.950Z,94834.31
2023-05-22T12:26:34.251Z,94832.72
2023-05-22T12:29:01.874Z,94824.53
2023-05-22T12:31:29.027Z,94817.91
2023-05-22T12:33:57.832Z,94829.16
2023-05-22T12:36:54.224Z,94826.22
2023-05-22T12:39:22.522Z,94815.53
2023-05-22T12:41:49.472Z,94817.97
2023-05-22T12:44:16.715Z,94820.97
2023-05-22T12:46:43.841Z,94825.34
2023-05-22T12:49:11.126Z,94807.66
2023-05-22T12:51:38.181Z,94807.22
2023-05-22T12:54:05.404Z,94816.66
2023-05-22T12:56:32.687Z,94813.44
2023-05-22T12:58:59.980Z,94810.63
2023-05-22T13:01:27.170Z,94813.22
2023-05-22T13:03:54.213Z,94817.44
2023-05-22T13:06:21.356Z,94821.84
2023-05-22T13:08:48.589Z,94815.38
2023-05-22T13:11:15.826Z,94810.97
2023-05-22T13:13:42.944Z,94793.00
2023-05-22T13:16:10.965Z,94792.75
2023-05-22T13:18:37.983Z,94795.47
2023-05-22T13:21:05.181Z,94788.59
2023-05-22T13:23:32.241Z,94792.19
2023-05-22T13:26:01.568Z,94774.88
2023-05-22T13:28:28.545Z,94773.84
2023-05-22T13:30:55.624Z,94757.72
2023-05-22T13:33:22.868Z,94760.66
2023-05-22T13:35:49.916Z,94765.78
2023-05-22T13:38:16.998Z,94757.53
2023-05-22T13:40:44.702Z,94759.69
2023-05-22T13:43:15.596Z,94757.81
2023-05-22T13:45:42.788Z,94748.50
2023-05-22T13:48:09.963Z,94741.47
2023-05-22T13:50:36.992Z,94743.97
2023-05-22T13:53:03.981Z,94743.25
2023-05-22T13:55:31.085Z,94739.63
2023-05-22T13:57:58.137Z,94742.16
2023-05-22T14:00:25.477Z,94733.69
2023-05-22T14:02:52.590Z,94734.84
2023-05-22T14:05:19.748Z,94738.03
2023-05-22T14:07:49.322Z,94731.53
2023-05-22T14:10:16.413Z,94732.22
2023-05-22T14:12:43.463Z,94724.53
2023-05-22T14:15:10.990Z,94725.69
2023-05-22T14:17:39.037Z,94726.03
2023-05-22T14:20:07.429Z,94728.28
2023-05-22T14:22:48.052Z,94726.66
2023-05-22T14:25:21.659Z,94725.56
2023-05-22T14:27:48.640Z,94727.63
2023-05-22T14:30:15.755Z,94735.78
2023-05-22T14:32:43.461Z,94741.69
2023-05-22T14:35:10.590Z,94737.38
2023-05-22T14:37:37.683Z,94728.06
2023-05-22T14:40:05.453Z,94727.78
2023-05-22T14:42:32.498Z,94736.88
2023-05-22T14:44:59.656Z,94746.50
2023-05-22T14:47:27.013Z,94747.53
2023-05-22T14:49:57.649Z,94744.34
2023-05-22T14:52:29.982Z,94738.19
2023-05-22T14:54:57.080Z,94747.19
2023-05-22T14:57:24.128Z,94748.88
2023-05-22T14:59:51.124Z,94758.56
2023-05-22T15:02:19.948Z,94763.88
2023-05-22T15:04:47.079Z,94765.84
2023-05-22T15:07:14.212Z,94760.56
2023-05-22T15:09:41.636Z,94762.47
2023-05-22T15:12:08.675Z,94762.91
2023-05-22T15:14:35.803Z,94763.00
2023-05-22T15:17:03.028Z,94764.31
2023-05-22T15:19:30.254Z,94761.66
2023-05-22T15:22:00.733Z,94761.75
2023-05-22T15:24:32.831Z,94767.06
2023-05-22T15:26:59.840Z,94764.22
2023-05-22T15:29:29.152Z,94763.78
2023-05-22T15:31:56.329Z,94776.44
2023-05-22T15:34:23.374Z,94779.72
2023-05-22T15:36:50.421Z,94778.19
2023-05-22T15:39:17.502Z,94768.34
2023-05-22T15:41:48.970Z,94769.22
2023-05-22T15:44:25.655Z,94780.56
2023-05-22T15:46:52.640Z,94775.16
2023-05-22T15:49:19.719Z,94779.28
2023-05-22T15:51:46.775Z,94785.66
2023-05-22T15:54:14.038Z,94793.53
2023-05-22T15:56:41.231Z,94797.38
2023-05-22T15:59:08.271Z,94792.50
2023-05-22T16:01:35.587Z,94790.47
2023-05-22T16:04:02.923Z,94790.84
2023-05-22T16:06:29.962Z,94778.22
2023-05-22T16:08:57.007Z,94770.88
2023-05-22T16:11:24.125Z,94771.47
2023-05-22T16:13:51.234Z,94772.97
2023-05-22T16:16:18.340Z,94767.09
2023-05-22T16:18:45.404Z,94764.50
2023-05-22T16:21:12.514Z,94755.81
2023-05-22T16:23:39.491Z,94747.66
2023-05-22T16:26:06.510Z,94749.66
2023-05-22T16:28:33.468Z,94742.63
2023-05-22T16:31:00.756Z,94743.63
2023-05-22T16:33:27.911Z,94748.19
2023-05-22T16:35:54.893Z,94748.59
